EJA69QS KLAS-KABQ
Flight info
| Callsign | EJA69QS |
|---|---|
| Flight time | 1h 6m |
| Altitude | 45000 |
| Route | NIITZ4 SSKEE GUP LOWBO3 |
| Aircraft | C700/M-SBDGHM1RWXY/LB2 |
Departure
| Time | 2026-05-07 19:34 |
|---|---|
| Airport | Harry Reid International Airport (KLAS) |
Arrival
| Time | 2026-05-07 20:40 |
|---|---|
| Airport | Albuquerque International Sunport (KABQ) |
| Time | Latitude | Longitude | Altitude | Speed | Heading |
|---|---|---|---|---|---|
| 2026-05-07 19:15 | 36.08119 | -115.17108 | 2165 ft | 0 kts | 90° |
| 2026-05-07 19:29 | 36.08119 | -115.17106 | 2167 ft | 1 kts | 88° |
| 2026-05-07 19:30 | 36.08141 | -115.17078 | 2165 ft | 10 kts | 57° |
| 2026-05-07 19:30 | 36.08151 | -115.16948 | 2162 ft | 16 kts | 73° |
| 2026-05-07 19:30 | 36.08247 | -115.16864 | 2156 ft | 19 kts | 35° |
| 2026-05-07 19:30 | 36.08317 | -115.16735 | 2150 ft | 19 kts | 26° |
| 2026-05-07 19:31 | 36.08457 | -115.16663 | 2145 ft | 25 kts | 25° |
| 2026-05-07 19:31 | 36.08637 | -115.16557 | 2140 ft | 31 kts | 25° |
| 2026-05-07 19:31 | 36.08843 | -115.16439 | 2133 ft | 35 kts | 24° |
| 2026-05-07 19:31 | 36.09049 | -115.16320 | 2127 ft | 30 kts | 26° |
| 2026-05-07 19:32 | 36.09216 | -115.16225 | 2121 ft | 29 kts | 25° |
| 2026-05-07 19:32 | 36.09413 | -115.16111 | 2112 ft | 32 kts | 25° |
| 2026-05-07 19:32 | 36.09626 | -115.15989 | 2106 ft | 32 kts | 25° |
| 2026-05-07 19:32 | 36.09803 | -115.15888 | 2102 ft | 27 kts | 24° |
| 2026-05-07 19:33 | 36.09967 | -115.15791 | 2099 ft | 22 kts | 30° |
| 2026-05-07 19:33 | 36.09947 | -115.15671 | 2095 ft | 20 kts | 140° |
| 2026-05-07 19:33 | 36.09881 | -115.15687 | 2095 ft | 31 kts | 207° |
| 2026-05-07 19:33 | 36.09367 | -115.15987 | 2104 ft | 130 kts | 205° |
| 2026-05-07 19:34 | 36.08388 | -115.16532 | 2820 ft | 163 kts | 202° |
| 2026-05-07 19:34 | 36.07239 | -115.17159 | 3668 ft | 206 kts | 203° |
| 2026-05-07 19:34 | 36.05771 | -115.18022 | 4291 ft | 255 kts | 205° |
| 2026-05-07 19:34 | 36.04175 | -115.18888 | 4929 ft | 251 kts | 202° |
| 2026-05-07 19:35 | 36.02594 | -115.19700 | 5301 ft | 245 kts | 203° |
| 2026-05-07 19:35 | 36.00957 | -115.20598 | 5816 ft | 270 kts | 204° |
| 2026-05-07 19:35 | 35.99160 | -115.21441 | 6327 ft | 281 kts | 199° |
| 2026-05-07 19:35 | 35.97239 | -115.21947 | 6792 ft | 285 kts | 184° |
| 2026-05-07 19:36 | 35.95254 | -115.21781 | 7260 ft | 288 kts | 170° |
| 2026-05-07 19:36 | 35.93318 | -115.21135 | 7733 ft | 291 kts | 158° |
| 2026-05-07 19:36 | 35.91559 | -115.19866 | 8211 ft | 294 kts | 142° |
| 2026-05-07 19:36 | 35.90126 | -115.18058 | 8708 ft | 296 kts | 126° |
| 2026-05-07 19:37 | 35.89040 | -115.15902 | 9207 ft | 297 kts | 119° |
| 2026-05-07 19:37 | 35.87983 | -115.13698 | 9714 ft | 299 kts | 119° |
| 2026-05-07 19:37 | 35.87118 | -115.11375 | 10191 ft | 300 kts | 105° |
| 2026-05-07 19:37 | 35.86749 | -115.08760 | 10666 ft | 320 kts | 91° |
| 2026-05-07 19:38 | 35.86850 | -115.06001 | 11148 ft | 322 kts | 84° |
| 2026-05-07 19:38 | 35.87012 | -115.03248 | 11641 ft | 323 kts | 84° |
| 2026-05-07 19:38 | 35.87166 | -115.00488 | 12080 ft | 323 kts | 84° |
| 2026-05-07 19:38 | 35.87315 | -114.97723 | 12579 ft | 323 kts | 84° |
| 2026-05-07 19:39 | 35.87466 | -114.94960 | 13083 ft | 323 kts | 84° |
| 2026-05-07 19:39 | 35.87620 | -114.92181 | 13596 ft | 326 kts | 84° |
| 2026-05-07 19:39 | 35.87772 | -114.89391 | 14080 ft | 328 kts | 84° |
| 2026-05-07 19:39 | 35.87923 | -114.86580 | 14546 ft | 330 kts | 84° |
| 2026-05-07 19:40 | 35.88076 | -114.83747 | 15015 ft | 332 kts | 84° |
| 2026-05-07 19:40 | 35.88230 | -114.80894 | 15499 ft | 335 kts | 84° |
| 2026-05-07 19:40 | 35.88383 | -114.78018 | 15987 ft | 337 kts | 84° |
| 2026-05-07 19:40 | 35.88536 | -114.75128 | 16478 ft | 339 kts | 84° |
| 2026-05-07 19:41 | 35.88690 | -114.72213 | 16979 ft | 342 kts | 84° |
| 2026-05-07 19:41 | 35.88845 | -114.69278 | 17485 ft | 345 kts | 84° |
| 2026-05-07 19:41 | 35.89001 | -114.66313 | 18002 ft | 347 kts | 84° |
| 2026-05-07 19:41 | 35.89156 | -114.63335 | 18481 ft | 349 kts | 84° |
| 2026-05-07 19:42 | 35.89312 | -114.60337 | 18934 ft | 352 kts | 84° |
| 2026-05-07 19:42 | 35.89469 | -114.57310 | 19399 ft | 355 kts | 84° |
| 2026-05-07 19:42 | 35.89625 | -114.54255 | 19869 ft | 358 kts | 83° |
| 2026-05-07 19:42 | 35.89715 | -114.51176 | 20347 ft | 361 kts | 87° |
| 2026-05-07 19:43 | 35.89692 | -114.48114 | 20823 ft | 363 kts | 88° |
| 2026-05-07 19:43 | 35.89667 | -114.44948 | 21322 ft | 366 kts | 87° |
| 2026-05-07 19:43 | 35.89655 | -114.41830 | 21820 ft | 369 kts | 87° |
| 2026-05-07 19:43 | 35.89643 | -114.38653 | 22338 ft | 372 kts | 87° |
| 2026-05-07 19:44 | 35.89625 | -114.35405 | 22883 ft | 375 kts | 87° |
| 2026-05-07 19:44 | 35.89603 | -114.32167 | 23422 ft | 379 kts | 87° |
| 2026-05-07 19:44 | 35.89583 | -114.28942 | 23884 ft | 383 kts | 87° |
| 2026-05-07 19:44 | 35.89563 | -114.25640 | 24343 ft | 387 kts | 87° |
| 2026-05-07 19:45 | 35.89542 | -114.22316 | 24805 ft | 388 kts | 87° |
| 2026-05-07 19:45 | 35.89518 | -114.18986 | 25274 ft | 388 kts | 87° |
| 2026-05-07 19:45 | 35.89493 | -114.15657 | 25749 ft | 389 kts | 87° |
| 2026-05-07 19:45 | 35.89469 | -114.12309 | 26241 ft | 393 kts | 86° |
| 2026-05-07 19:46 | 35.89444 | -114.08924 | 26738 ft | 396 kts | 86° |
| 2026-05-07 19:46 | 35.89416 | -114.05512 | 27248 ft | 400 kts | 86° |
| 2026-05-07 19:46 | 35.89387 | -114.02068 | 27762 ft | 403 kts | 86° |
| 2026-05-07 19:46 | 35.89357 | -113.98602 | 28292 ft | 405 kts | 86° |
| 2026-05-07 19:47 | 35.89326 | -113.95113 | 28823 ft | 407 kts | 86° |
| 2026-05-07 19:47 | 35.89294 | -113.91615 | 29366 ft | 410 kts | 86° |
| 2026-05-07 19:47 | 35.89259 | -113.88088 | 29919 ft | 413 kts | 86° |
| 2026-05-07 19:47 | 35.89228 | -113.84525 | 30419 ft | 418 kts | 86° |
| 2026-05-07 19:48 | 35.89192 | -113.80918 | 30899 ft | 422 kts | 86° |
| 2026-05-07 19:48 | 35.89152 | -113.77287 | 31390 ft | 425 kts | 86° |
| 2026-05-07 19:48 | 35.89112 | -113.73640 | 31905 ft | 427 kts | 87° |
| 2026-05-07 19:48 | 35.89073 | -113.69954 | 32411 ft | 431 kts | 86° |
| 2026-05-07 19:49 | 35.89032 | -113.66264 | 32939 ft | 430 kts | 86° |
| 2026-05-07 19:49 | 35.88986 | -113.62570 | 33457 ft | 433 kts | 87° |
| 2026-05-07 19:49 | 35.88957 | -113.60110 | 33840 ft | 433 kts | 87° |
| 2026-05-07 19:49 | 35.88916 | -113.56412 | 34306 ft | 429 kts | 86° |
| 2026-05-07 19:50 | 35.88769 | -113.52743 | 34761 ft | 429 kts | 92° |
| 2026-05-07 19:50 | 35.88268 | -113.49112 | 35255 ft | 430 kts | 96° |
| 2026-05-07 19:50 | 35.87742 | -113.45478 | 35749 ft | 430 kts | 96° |
| 2026-05-07 19:50 | 35.87232 | -113.41855 | 36255 ft | 429 kts | 96° |
| 2026-05-07 19:51 | 35.86718 | -113.38240 | 36762 ft | 428 kts | 96° |
| 2026-05-07 19:51 | 35.86196 | -113.34637 | 37298 ft | 426 kts | 96° |
| 2026-05-07 19:51 | 35.85675 | -113.31050 | 37834 ft | 424 kts | 96° |
| 2026-05-07 19:51 | 35.85160 | -113.27479 | 38396 ft | 422 kts | 96° |
| 2026-05-07 19:52 | 35.84649 | -113.23936 | 38895 ft | 418 kts | 96° |
| 2026-05-07 19:52 | 35.84138 | -113.20423 | 39359 ft | 414 kts | 97° |
| 2026-05-07 19:52 | 35.83632 | -113.16951 | 39820 ft | 410 kts | 97° |
| 2026-05-07 19:52 | 35.83132 | -113.13517 | 40290 ft | 405 kts | 97° |
| 2026-05-07 19:53 | 35.82637 | -113.10128 | 40790 ft | 399 kts | 97° |
| 2026-05-07 19:53 | 35.82146 | -113.06765 | 41008 ft | 402 kts | 97° |
| 2026-05-07 19:53 | 35.81135 | -112.99871 | 41031 ft | 416 kts | 98° |
| 2026-05-07 19:54 | 35.80082 | -112.92731 | 41043 ft | 431 kts | 98° |
| 2026-05-07 19:54 | 35.78992 | -112.85367 | 41047 ft | 443 kts | 98° |
| 2026-05-07 19:55 | 35.77865 | -112.77789 | 41062 ft | 456 kts | 98° |
| 2026-05-07 19:55 | 35.76704 | -112.70021 | 41059 ft | 467 kts | 98° |
| 2026-05-07 19:56 | 35.75513 | -112.62068 | 41058 ft | 477 kts | 98° |
| 2026-05-07 19:56 | 35.74300 | -112.53976 | 41059 ft | 482 kts | 98° |
| 2026-05-07 19:57 | 35.73079 | -112.45884 | 41051 ft | 479 kts | 98° |
| 2026-05-07 19:57 | 35.71864 | -112.37864 | 41047 ft | 475 kts | 98° |
| 2026-05-07 19:58 | 35.70647 | -112.29864 | 41041 ft | 477 kts | 98° |
| 2026-05-07 19:58 | 35.69418 | -112.21832 | 41037 ft | 479 kts | 98° |
| 2026-05-07 19:59 | 35.68179 | -112.13767 | 41039 ft | 481 kts | 98° |
| 2026-05-07 19:59 | 35.66928 | -112.05660 | 41040 ft | 483 kts | 99° |
| 2026-05-07 20:00 | 35.65674 | -111.97575 | 41045 ft | 481 kts | 99° |
| 2026-05-07 20:00 | 35.64419 | -111.89519 | 41053 ft | 479 kts | 99° |
| 2026-05-07 20:01 | 35.63274 | -111.81469 | 41056 ft | 476 kts | 92° |
| 2026-05-07 20:01 | 35.62945 | -111.73354 | 41067 ft | 477 kts | 91° |
| 2026-05-07 20:02 | 35.62586 | -111.65171 | 41070 ft | 481 kts | 91° |
| 2026-05-07 20:02 | 35.62244 | -111.56946 | 41076 ft | 482 kts | 91° |
| 2026-05-07 20:03 | 35.61882 | -111.48744 | 41064 ft | 479 kts | 91° |
| 2026-05-07 20:03 | 35.61525 | -111.40583 | 41062 ft | 477 kts | 91° |
| 2026-05-07 20:04 | 35.61160 | -111.32456 | 41046 ft | 476 kts | 91° |
| 2026-05-07 20:04 | 35.60791 | -111.24317 | 41037 ft | 478 kts | 91° |
| 2026-05-07 20:05 | 35.60416 | -111.16194 | 41048 ft | 480 kts | 91° |
| 2026-05-07 20:05 | 35.60032 | -111.07985 | 41043 ft | 482 kts | 91° |
| 2026-05-07 20:06 | 35.59640 | -110.99736 | 41043 ft | 483 kts | 91° |
| 2026-05-07 20:06 | 35.59244 | -110.91509 | 41036 ft | 482 kts | 92° |
| 2026-05-07 20:07 | 35.58844 | -110.83302 | 41034 ft | 480 kts | 92° |
| 2026-05-07 20:07 | 35.58438 | -110.75115 | 41038 ft | 480 kts | 92° |
| 2026-05-07 20:08 | 35.58026 | -110.66913 | 41036 ft | 481 kts | 92° |
| 2026-05-07 20:08 | 35.57608 | -110.58698 | 41034 ft | 483 kts | 92° |
| 2026-05-07 20:09 | 35.57184 | -110.50462 | 41034 ft | 483 kts | 92° |
| 2026-05-07 20:10 | 35.56535 | -110.38085 | 41035 ft | 485 kts | 93° |
| 2026-05-07 20:10 | 35.56093 | -110.29795 | 41034 ft | 487 kts | 93° |
| 2026-05-07 20:11 | 35.55645 | -110.21501 | 41035 ft | 486 kts | 93° |
| 2026-05-07 20:11 | 35.55193 | -110.13236 | 41031 ft | 484 kts | 93° |
| 2026-05-07 20:12 | 35.54737 | -110.04986 | 41027 ft | 484 kts | 93° |
| 2026-05-07 20:12 | 35.54274 | -109.96728 | 41025 ft | 485 kts | 93° |
| 2026-05-07 20:13 | 35.53805 | -109.88454 | 41014 ft | 486 kts | 94° |
| 2026-05-07 20:13 | 35.53327 | -109.80160 | 41016 ft | 488 kts | 94° |
| 2026-05-07 20:14 | 35.52844 | -109.71834 | 41016 ft | 490 kts | 94° |
| 2026-05-07 20:14 | 35.52353 | -109.63486 | 41012 ft | 491 kts | 95° |
| 2026-05-07 20:15 | 35.51856 | -109.55140 | 41010 ft | 489 kts | 95° |
| 2026-05-07 20:15 | 35.51356 | -109.46825 | 41010 ft | 488 kts | 95° |
| 2026-05-07 20:16 | 35.50850 | -109.38523 | 41044 ft | 489 kts | 95° |
| 2026-05-07 20:16 | 35.50337 | -109.30190 | 41085 ft | 490 kts | 95° |
| 2026-05-07 20:17 | 35.49817 | -109.21837 | 41115 ft | 492 kts | 95° |
| 2026-05-07 20:17 | 35.49289 | -109.13462 | 41138 ft | 493 kts | 95° |
| 2026-05-07 20:18 | 35.48754 | -109.05063 | 41144 ft | 495 kts | 95° |
| 2026-05-07 20:18 | 35.48211 | -108.96632 | 41168 ft | 495 kts | 95° |
| 2026-05-07 20:19 | 35.47669 | -108.88228 | 41205 ft | 493 kts | 94° |
| 2026-05-07 20:19 | 35.47782 | -108.79842 | 41202 ft | 491 kts | 88° |
| 2026-05-07 20:20 | 35.47937 | -108.72889 | 41006 ft | 492 kts | 89° |
| 2026-05-07 20:20 | 35.48155 | -108.63043 | 41025 ft | 496 kts | 89° |
| 2026-05-07 20:21 | 35.48339 | -108.54553 | 41020 ft | 498 kts | 89° |
| 2026-05-07 20:21 | 35.48512 | -108.46138 | 41019 ft | 495 kts | 89° |
| 2026-05-07 20:22 | 35.48685 | -108.37645 | 41022 ft | 495 kts | 89° |
| 2026-05-07 20:22 | 35.48291 | -108.29211 | 40716 ft | 499 kts | 96° |
| 2026-05-07 20:22 | 35.48003 | -108.24919 | 39502 ft | 507 kts | 95° |
| 2026-05-07 20:23 | 35.47737 | -108.20674 | 38318 ft | 504 kts | 94° |
| 2026-05-07 20:23 | 35.47469 | -108.16407 | 36977 ft | 499 kts | 94° |
| 2026-05-07 20:23 | 35.47186 | -108.12132 | 35726 ft | 493 kts | 93° |
| 2026-05-07 20:23 | 35.46905 | -108.07971 | 34532 ft | 486 kts | 93° |
| 2026-05-07 20:24 | 35.46635 | -108.03877 | 33260 ft | 477 kts | 92° |
| 2026-05-07 20:24 | 35.46373 | -107.99855 | 31993 ft | 470 kts | 92° |
| 2026-05-07 20:24 | 35.46109 | -107.95888 | 30772 ft | 463 kts | 92° |
| 2026-05-07 20:24 | 35.45844 | -107.91982 | 29504 ft | 456 kts | 92° |
| 2026-05-07 20:25 | 35.45589 | -107.88224 | 29086 ft | 433 kts | 92° |
| 2026-05-07 20:25 | 35.45345 | -107.84643 | 28765 ft | 412 kts | 92° |
| 2026-05-07 20:25 | 35.45113 | -107.81193 | 28364 ft | 401 kts | 92° |
| 2026-05-07 20:25 | 35.44891 | -107.77796 | 28014 ft | 400 kts | 92° |
| 2026-05-07 20:26 | 35.44696 | -107.74366 | 27645 ft | 408 kts | 92° |
| 2026-05-07 20:26 | 35.44485 | -107.70848 | 27019 ft | 418 kts | 92° |
| 2026-05-07 20:26 | 35.44252 | -107.67282 | 26330 ft | 418 kts | 93° |
| 2026-05-07 20:26 | 35.44025 | -107.63762 | 25653 ft | 410 kts | 93° |
| 2026-05-07 20:27 | 35.43812 | -107.60312 | 24984 ft | 401 kts | 92° |
| 2026-05-07 20:27 | 35.43604 | -107.56947 | 24333 ft | 391 kts | 93° |
| 2026-05-07 20:27 | 35.43395 | -107.53664 | 23697 ft | 384 kts | 93° |
| 2026-05-07 20:27 | 35.43186 | -107.50422 | 22963 ft | 380 kts | 93° |
| 2026-05-07 20:28 | 35.42980 | -107.47206 | 22229 ft | 378 kts | 93° |
| 2026-05-07 20:28 | 35.42776 | -107.44000 | 21515 ft | 376 kts | 94° |
| 2026-05-07 20:28 | 35.42571 | -107.40810 | 20818 ft | 374 kts | 93° |
| 2026-05-07 20:28 | 35.42231 | -107.37658 | 20131 ft | 373 kts | 102° |
| 2026-05-07 20:29 | 35.41396 | -107.34661 | 19465 ft | 371 kts | 114° |
| 2026-05-07 20:29 | 35.40127 | -107.31922 | 18813 ft | 367 kts | 122° |
| 2026-05-07 20:29 | 35.38757 | -107.29330 | 18146 ft | 359 kts | 122° |
| 2026-05-07 20:29 | 35.37421 | -107.26779 | 17408 ft | 352 kts | 122° |
| 2026-05-07 20:30 | 35.36118 | -107.24278 | 16693 ft | 346 kts | 122° |
| 2026-05-07 20:30 | 35.34841 | -107.21805 | 15994 ft | 341 kts | 122° |
| 2026-05-07 20:30 | 35.33602 | -107.19357 | 15315 ft | 336 kts | 121° |
| 2026-05-07 20:30 | 35.32373 | -107.16936 | 14694 ft | 332 kts | 122° |
| 2026-05-07 20:31 | 35.31167 | -107.14588 | 14277 ft | 322 kts | 122° |
| 2026-05-07 20:31 | 35.29988 | -107.12290 | 13862 ft | 316 kts | 122° |
| 2026-05-07 20:31 | 35.28777 | -107.10067 | 13417 ft | 313 kts | 129° |
| 2026-05-07 20:31 | 35.27242 | -107.08186 | 13009 ft | 312 kts | 137° |
| 2026-05-07 20:32 | 35.26195 | -107.06985 | 12733 ft | 312 kts | 137° |
| 2026-05-07 20:32 | 35.24126 | -107.04571 | 12195 ft | 311 kts | 136° |
| 2026-05-07 20:32 | 35.23060 | -107.03338 | 11907 ft | 310 kts | 138° |
| 2026-05-07 20:32 | 35.21459 | -107.01589 | 11552 ft | 307 kts | 137° |
| 2026-05-07 20:33 | 35.19896 | -106.99819 | 11196 ft | 305 kts | 137° |
| 2026-05-07 20:33 | 35.18351 | -106.98068 | 10841 ft | 300 kts | 137° |
| 2026-05-07 20:33 | 35.16852 | -106.96352 | 10489 ft | 290 kts | 135° |
| 2026-05-07 20:33 | 35.15432 | -106.94645 | 10159 ft | 282 kts | 135° |
| 2026-05-07 20:34 | 35.14034 | -106.93001 | 9828 ft | 276 kts | 135° |
| 2026-05-07 20:34 | 35.12674 | -106.91391 | 9474 ft | 270 kts | 135° |
| 2026-05-07 20:34 | 35.11346 | -106.89805 | 9177 ft | 264 kts | 135° |
| 2026-05-07 20:34 | 35.10048 | -106.88257 | 8983 ft | 254 kts | 135° |
| 2026-05-07 20:35 | 35.08834 | -106.86773 | 9145 ft | 241 kts | 134° |
| 2026-05-07 20:35 | 35.07681 | -106.85345 | 9138 ft | 232 kts | 134° |
| 2026-05-07 20:35 | 35.06547 | -106.83923 | 8967 ft | 236 kts | 134° |
| 2026-05-07 20:35 | 35.05376 | -106.82506 | 8794 ft | 237 kts | 136° |
| 2026-05-07 20:36 | 35.04290 | -106.81039 | 8580 ft | 230 kts | 119° |
| 2026-05-07 20:36 | 35.03967 | -106.79189 | 8395 ft | 224 kts | 82° |
| 2026-05-07 20:36 | 35.04597 | -106.77526 | 8217 ft | 215 kts | 45° |
| 2026-05-07 20:36 | 35.05879 | -106.76705 | 8045 ft | 208 kts | 7° |
| 2026-05-07 20:37 | 35.07279 | -106.76601 | 7930 ft | 197 kts | 22° |
| 2026-05-07 20:37 | 35.07856 | -106.75255 | 7697 ft | 202 kts | 104° |
| 2026-05-07 20:37 | 35.07023 | -106.73774 | 7278 ft | 223 kts | 133° |
| 2026-05-07 20:37 | 35.06029 | -106.72334 | 7076 ft | 228 kts | 121° |
| 2026-05-07 20:38 | 35.05348 | -106.70605 | 6828 ft | 205 kts | 113° |
| 2026-05-07 20:38 | 35.04881 | -106.69173 | 6473 ft | 172 kts | 105° |
| 2026-05-07 20:38 | 35.04651 | -106.67802 | 6149 ft | 158 kts | 97° |
| 2026-05-07 20:38 | 35.04526 | -106.66509 | 5995 ft | 152 kts | 91° |
| 2026-05-07 20:39 | 35.04415 | -106.65217 | 5909 ft | 156 kts | 87° |
| 2026-05-07 20:39 | 35.04462 | -106.63882 | 5689 ft | 155 kts | 84° |
| 2026-05-07 20:39 | 35.04447 | -106.62555 | 5450 ft | 158 kts | 87° |
| 2026-05-07 20:39 | 35.04435 | -106.61293 | 5320 ft | 131 kts | 87° |
| 2026-05-07 20:40 | 35.04432 | -106.60457 | 5324 ft | 66 kts | 90° |
| 2026-05-07 20:40 | 35.04434 | -106.60088 | 5322 ft | 36 kts | 88° |
| 2026-05-07 20:40 | 35.04451 | -106.59799 | 5321 ft | 32 kts | 76° |
| 2026-05-07 20:40 | 35.04538 | -106.59625 | 5319 ft | 14 kts | 26° |
| 2026-05-07 20:41 | 35.04583 | -106.59592 | 5321 ft | 4 kts | 99° |
| 2026-05-07 20:41 | 35.04584 | -106.59522 | 5321 ft | 13 kts | 90° |
| 2026-05-07 20:41 | 35.04581 | -106.59373 | 5322 ft | 21 kts | 91° |
| 2026-05-07 20:41 | 35.04583 | -106.59162 | 5322 ft | 28 kts | 84° |
| 2026-05-07 20:42 | 35.04651 | -106.59136 | 5319 ft | 14 kts | 341° |
| 2026-05-07 20:42 | 35.04717 | -106.59160 | 5319 ft | 0 kts | 359° |